Time;durP1;ratioP1;P1;durP2;ratioP2;P2;SDS_P1;SDS_P2;PMS_P1;PMS_P2;Temp;Humidity;BMP_temperature;BMP_pressure;BME280_temperature;BME280_humidity;BME280_pressure;Samples;Min_cycle;Max_cycle;Signal;HPM_P1;HPM_P2
2022/04/30 00:01:28;;;;;;;11.02;6.20;;;7.00;99.90;;;;;;4989625;28;20045;-56
2022/04/30 00:03:54;;;;;;;11.07;6.45;;;7.00;99.90;;;;;;4997712;28;20403;-55
2022/04/30 00:06:20;;;;;;;9.43;5.75;;;6.90;99.90;;;;;;4966984;28;20048;-56
2022/04/30 00:08:46;;;;;;;12.05;6.32;;;6.90;99.90;;;;;;5000031;28;20038;-54
2022/04/30 00:11:12;;;;;;;13.38;5.97;;;6.90;99.90;;;;;;4995847;28;20038;-57
2022/04/30 00:13:38;;;;;;;8.52;6.53;;;6.80;99.90;;;;;;4986179;28;20046;-57
2022/04/30 00:16:04;;;;;;;11.55;6.45;;;6.80;99.90;;;;;;4975997;28;20046;-56
2022/04/30 00:18:30;;;;;;;10.88;6.53;;;6.80;99.90;;;;;;5001061;28;20513;-55
2022/04/30 00:20:58;;;;;;;10.77;6.30;;;6.80;99.90;;;;;;4973624;28;20034;-55
2022/04/30 00:23:26;;;;;;;11.27;6.18;;;6.80;99.90;;;;;;4999410;28;20116;-55
2022/04/30 00:25:54;;;;;;;14.18;6.97;;;6.80;99.90;;;;;;4998524;28;20113;-56
2022/04/30 00:28:23;;;;;;;13.63;6.90;;;6.80;99.90;;;;;;4979054;28;20092;-56
2022/04/30 00:30:49;;;;;;;13.70;7.72;;;6.80;99.90;;;;;;5002713;28;20038;-56
2022/04/30 00:33:15;;;;;;;10.75;7.13;;;6.80;99.90;;;;;;4999772;28;20046;-57
2022/04/30 00:35:43;;;;;;;12.07;6.63;;;6.80;99.90;;;;;;4998430;28;20100;-57
2022/04/30 00:38:09;;;;;;;10.05;5.70;;;6.80;99.90;;;;;;5001894;28;21060;-57
2022/04/30 00:40:34;;;;;;;11.45;6.88;;;6.80;99.90;;;;;;5002519;28;20113;-57
2022/04/30 00:43:00;;;;;;;12.07;6.43;;;6.80;99.90;;;;;;4999767;28;20144;-57
2022/04/30 00:45:26;;;;;;;13.27;6.82;;;6.70;99.90;;;;;;5004195;28;20227;-57
2022/04/30 00:47:52;;;;;;;14.30;6.72;;;6.70;99.90;;;;;;4993200;28;20091;-58
2022/04/30 00:50:21;;;;;;;8.35;6.25;;;6.70;99.90;;;;;;4988277;28;20228;-56
2022/04/30 00:52:48;;;;;;;13.40;6.93;;;6.70;99.90;;;;;;5000143;28;20111;-56
2022/04/30 00:55:19;;;;;;;12.10;6.03;;;6.70;99.90;;;;;;4996002;28;20034;-57
2022/04/30 00:57:45;;;;;;;9.50;7.07;;;6.60;99.90;;;;;;4996421;28;20096;-58
2022/04/30 01:00:12;;;;;;;10.85;6.60;;;6.60;99.90;;;;;;5004327;28;20683;-57
2022/04/30 01:02:38;;;;;;;9.07;6.50;;;6.60;99.90;;;;;;5002590;28;20045;-57
2022/04/30 01:05:04;;;;;;;13.45;6.53;;;6.60;99.90;;;;;;4993793;28;20046;-57
2022/04/30 01:07:31;;;;;;;9.95;6.38;;;6.70;99.90;;;;;;5001294;28;20531;-56
2022/04/30 01:09:57;;;;;;;10.65;6.70;;;6.60;99.90;;;;;;4988870;28;20046;-57
2022/04/30 01:12:23;;;;;;;11.57;7.00;;;6.60;99.90;;;;;;5000338;28;20496;-57
2022/04/30 01:14:52;;;;;;;10.70;6.97;;;6.60;99.90;;;;;;5002536;28;20034;-54
2022/04/30 01:17:19;;;;;;;8.38;6.22;;;6.60;99.90;;;;;;4999964;28;20310;-53
2022/04/30 01:19:47;;;;;;;9.27;6.03;;;6.60;99.90;;;;;;5000420;28;20070;-54
2022/04/30 01:22:21;;;;;;;8.90;6.05;;;6.70;99.90;;;;;;5000834;28;20042;-55
2022/04/30 01:24:48;;;;;;;8.95;6.32;;;6.70;99.90;;;;;;5004680;28;20153;-54
2022/04/30 01:27:16;;;;;;;11.32;6.57;;;6.70;99.90;;;;;;5004760;28;20168;-55
2022/04/30 01:29:42;;;;;;;12.18;7.00;;;6.70;99.90;;;;;;4991192;28;20042;-54
2022/04/30 01:37:36;;;;;;;10.07;6.38;;;6.80;99.90;;;;;;4996256;28;20053;-53
2022/04/30 01:40:09;;;;;;;10.07;7.07;;;6.80;99.90;;;;;;4985368;28;20164;-55
2022/04/30 01:42:43;;;;;;;9.45;6.93;;;6.80;99.90;;;;;;4997669;28;20338;-54
2022/04/30 01:45:09;;;;;;;10.18;7.07;;;6.80;99.90;;;;;;4994967;28;20050;-54
2022/04/30 01:47:44;;;;;;;10.88;7.00;;;6.90;99.90;;;;;;4996353;28;20065;-52
2022/04/30 01:50:10;;;;;;;12.05;6.18;;;6.90;99.90;;;;;;5001777;28;20037;-54
2022/04/30 01:52:36;;;;;;;11.27;6.78;;;6.90;99.90;;;;;;5006808;28;20073;-54
2022/04/30 01:55:02;;;;;;;9.90;6.15;;;6.90;99.90;;;;;;4984460;28;20428;-54
2022/04/30 01:57:28;;;;;;;11.73;6.68;;;6.90;99.90;;;;;;5002566;28;20240;-53
2022/04/30 01:59:56;;;;;;;12.77;6.72;;;7.00;99.90;;;;;;5000878;28;20367;-54
2022/04/30 02:02:26;;;;;;;14.10;6.90;;;7.00;99.90;;;;;;4999539;28;20523;-53
2022/04/30 02:04:54;;;;;;;14.10;7.72;;;7.00;99.90;;;;;;5001091;28;20516;-53
2022/04/30 02:07:22;;;;;;;11.95;6.93;;;7.10;99.90;;;;;;5002831;28;20077;-54
2022/04/30 02:09:53;;;;;;;10.70;7.40;;;7.10;99.90;;;;;;4993312;28;20307;-53
2022/04/30 02:12:18;;;;;;;12.93;7.85;;;7.10;99.90;;;;;;4994401;28;20038;-53
2022/04/30 02:14:55;;;;;;;10.57;7.28;;;7.10;99.90;;;;;;4999933;28;20045;-52
2022/04/30 02:17:22;;;;;;;10.25;7.65;;;7.20;99.90;;;;;;5001135;28;20104;-56
2022/04/30 02:22:38;;;;;;;8.98;6.70;;;7.30;99.90;;;;;;4999402;28;20100;-56
2022/04/30 02:25:09;;;;;;;13.68;8.30;;;7.20;99.90;;;;;;4986718;28;20057;-56
2022/04/30 02:27:38;;;;;;;15.25;8.13;;;7.20;99.90;;;;;;5013748;28;20049;-56
2022/04/30 02:30:15;;;;;;;10.63;7.18;;;7.20;99.90;;;;;;5005807;28;20050;-56
2022/04/30 02:32:52;;;;;;;11.48;7.50;;;7.10;99.90;;;;;;5001165;28;20121;-56
2022/04/30 02:35:26;;;;;;;8.70;6.50;;;7.10;99.90;;;;;;4997904;28;20042;-56
2022/04/30 02:37:53;;;;;;;;;;;7.10;99.90;;;;;;4998669;28;20052;-56
2022/04/30 02:40:21;;;;;;;11.95;6.07;;;7.10;99.90;;;;;;4995674;28;20451;-55
2022/04/30 02:42:48;;;;;;;11.05;6.95;;;7.10;99.90;;;;;;4996793;28;20046;-56
2022/04/30 02:45:15;;;;;;;10.25;7.13;;;7.10;99.90;;;;;;5000677;28;20048;-55
2022/04/30 02:47:42;;;;;;;7.95;6.65;;;7.10;99.90;;;;;;4998559;28;20100;-56
2022/04/30 02:50:10;;;;;;;9.70;7.15;;;7.10;99.90;;;;;;4980152;28;20046;-56
2022/04/30 02:52:37;;;;;;;10.93;6.53;;;7.20;99.90;;;;;;4995317;28;20056;-55
2022/04/30 02:55:04;;;;;;;9.85;7.32;;;7.20;99.90;;;;;;4973666;28;20116;-55
2022/04/30 03:00:30;;;;;;;8.05;5.35;;;7.30;99.90;;;;;;4997599;28;20398;-55
2022/04/30 03:02:57;;;;;;;9.13;6.20;;;7.30;99.90;;;;;;4994325;28;20042;-56
2022/04/30 03:05:23;;;;;;;9.02;6.32;;;7.30;99.90;;;;;;4998581;28;20493;-55
2022/04/30 03:07:50;;;;;;;7.15;5.60;;;7.30;99.90;;;;;;4999299;28;20060;-54
2022/04/30 03:10:16;;;;;;;10.90;7.93;;;7.40;99.90;;;;;;4997846;28;20401;-56
2022/04/30 03:12:42;;;;;;;9.35;6.30;;;7.40;99.90;;;;;;4982687;28;20045;-56
2022/04/30 03:15:11;;;;;;;11.07;6.28;;;7.40;99.90;;;;;;4984185;28;20061;-55
2022/04/30 03:23:05;;;;;;;8.05;6.18;;;7.50;99.90;;;;;;4995896;28;20247;-55
2022/04/30 03:25:31;;;;;;;10.07;6.78;;;7.50;99.90;;;;;;5002447;28;20685;-56
2022/04/30 03:27:56;;;;;;;6.85;5.18;;;7.50;99.90;;;;;;4999095;28;20424;-56
2022/04/30 03:30:25;;;;;;;7.03;4.43;;;7.60;99.90;;;;;;4980289;28;20637;-55
2022/04/30 03:32:50;;;;;;;12.35;5.72;;;7.60;99.90;;;;;;5008259;28;20073;-55
2022/04/30 03:35:16;;;;;;;11.20;6.55;;;7.60;99.90;;;;;;4983582;28;20481;-56
2022/04/30 03:37:42;;;;;;;8.18;5.70;;;7.60;99.90;;;;;;4999704;28;20046;-56
2022/04/30 03:40:08;;;;;;;11.40;6.28;;;7.60;99.90;;;;;;4962460;28;20041;-56
2022/04/30 03:42:34;;;;;;;8.50;5.30;;;7.60;99.90;;;;;;4995558;28;20514;-53
2022/04/30 03:45:02;;;;;;;10.60;6.53;;;7.60;99.90;;;;;;4999709;28;20046;-54
2022/04/30 03:47:28;;;;;;;13.05;6.35;;;7.60;99.90;;;;;;5019028;28;20504;-56
2022/04/30 03:49:54;;;;;;;6.03;4.65;;;7.70;99.90;;;;;;4996664;28;20050;-55
2022/04/30 03:52:19;;;;;;;10.98;6.07;;;7.70;99.90;;;;;;4982883;28;20482;-52
2022/04/30 03:54:45;;;;;;;8.80;6.18;;;7.70;99.90;;;;;;4994923;28;20525;-55
2022/04/30 03:57:11;;;;;;;7.85;5.55;;;7.70;99.90;;;;;;4981933;28;22332;-54
2022/04/30 03:59:36;;;;;;;10.13;5.97;;;7.70;99.90;;;;;;4997436;28;20030;-55
2022/04/30 04:02:03;;;;;;;7.60;5.50;;;7.70;99.90;;;;;;4997192;28;20100;-54
2022/04/30 04:04:29;;;;;;;11.63;7.65;;;7.70;99.90;;;;;;4999592;28;20080;-55
2022/04/30 04:06:57;;;;;;;9.25;5.80;;;7.70;99.90;;;;;;4999319;28;20324;-53
2022/04/30 04:09:22;;;;;;;10.32;6.18;;;7.70;99.90;;;;;;4999471;28;20038;-54
2022/04/30 04:11:48;;;;;;;7.13;5.50;;;7.70;99.90;;;;;;4999562;28;20049;-53
2022/04/30 04:19:42;;;;;;;7.70;6.35;;;7.70;99.90;;;;;;4983440;28;20046;-55
2022/04/30 04:22:08;;;;;;;10.10;6.07;;;7.70;99.90;;;;;;4999474;28;20301;-55
2022/04/30 04:27:18;;;;;;;11.18;6.63;;;7.70;99.90;;;;;;5000897;28;20050;-55
2022/04/30 04:29:46;;;;;;;9.73;6.80;;;7.70;99.90;;;;;;4996828;28;20511;-54
2022/04/30 04:32:12;;;;;;;13.30;6.45;;;7.70;99.90;;;;;;4991618;28;20046;-56
2022/04/30 04:34:38;;;;;;;10.57;6.40;;;7.70;99.90;;;;;;4983793;28;20044;-56
2022/04/30 04:37:04;;;;;;;11.20;7.15;;;7.80;99.90;;;;;;4997750;28;20034;-57
2022/04/30 04:39:30;;;;;;;12.45;6.85;;;7.80;99.90;;;;;;4978639;28;20053;-56
2022/04/30 04:41:55;;;;;;;8.27;6.68;;;7.80;99.90;;;;;;4999356;28;20649;-56
2022/04/30 04:44:21;;;;;;;11.20;7.00;;;7.80;99.90;;;;;;5011035;28;20033;-54
2022/04/30 04:46:48;;;;;;;8.80;5.45;;;7.80;99.90;;;;;;4980807;28;20460;-53
2022/04/30 04:49:15;;;;;;;12.27;6.32;;;7.90;99.90;;;;;;4995275;28;20132;-53
2022/04/30 04:51:41;;;;;;;9.63;7.05;;;7.90;99.90;;;;;;5000788;28;20045;-55
2022/04/30 04:54:07;;;;;;;11.68;7.32;;;7.90;99.90;;;;;;4999108;28;20042;-55
2022/04/30 04:56:33;;;;;;;10.68;6.13;;;7.90;99.90;;;;;;5002388;28;20046;-55
2022/04/30 04:59:00;;;;;;;8.35;6.72;;;7.90;99.90;;;;;;4999061;28;21132;-56
2022/04/30 05:01:25;;;;;;;6.35;5.22;;;7.90;99.90;;;;;;5000382;28;20069;-56
2022/04/30 05:03:51;;;;;;;13.15;7.78;;;7.90;99.90;;;;;;4997983;28;20046;-56
2022/04/30 05:06:17;;;;;;;10.45;8.18;;;7.80;99.90;;;;;;5000038;28;20050;-56
2022/04/30 05:08:44;;;;;;;11.23;7.60;;;7.80;99.90;;;;;;4993854;28;20277;-56
2022/04/30 05:11:10;;;;;;;14.10;8.43;;;7.80;99.90;;;;;;4981260;28;20061;-56
2022/04/30 05:13:35;;;;;;;10.63;6.85;;;7.90;99.90;;;;;;5000205;28;20064;-55
2022/04/30 05:16:02;;;;;;;11.18;7.47;;;7.90;99.90;;;;;;4994073;28;20050;-55
2022/04/30 05:18:28;;;;;;;25.08;15.45;;;7.90;99.90;;;;;;4975527;28;20042;-56
2022/04/30 05:20:53;;;;;;;15.68;11.98;;;8.00;99.90;;;;;;4996822;28;20030;-56
2022/04/30 05:23:20;;;;;;;14.23;8.00;;;8.00;99.90;;;;;;4987202;28;20050;-57
2022/04/30 05:25:45;;;;;;;15.88;8.88;;;8.00;99.90;;;;;;4998688;28;20441;-57
2022/04/30 05:28:11;;;;;;;12.65;9.30;;;8.00;99.90;;;;;;4998075;28;20076;-58
2022/04/30 05:30:37;;;;;;;10.75;7.70;;;8.10;99.90;;;;;;4994841;28;20116;-56
2022/04/30 05:33:03;;;;;;;10.77;6.80;;;8.10;99.90;;;;;;4995196;28;20473;-56
2022/04/30 05:35:29;;;;;;;11.98;8.57;;;8.10;99.90;;;;;;4984840;28;20057;-56
2022/04/30 05:37:55;;;;;;;11.13;7.28;;;8.20;99.90;;;;;;5016402;28;20111;-56
2022/04/30 05:40:21;;;;;;;15.75;9.40;;;8.20;99.90;;;;;;5000019;28;20038;-56
2022/04/30 05:42:46;;;;;;;11.38;7.85;;;8.20;99.90;;;;;;5002757;28;20416;-56
2022/04/30 05:45:12;;;;;;;10.40;7.97;;;8.30;99.90;;;;;;4983428;28;20246;-56
2022/04/30 05:47:38;;;;;;;14.15;8.43;;;8.30;99.90;;;;;;4999210;28;20046;-54
2022/04/30 05:50:05;;;;;;;10.85;8.68;;;8.40;99.90;;;;;;4979896;28;20204;-56
2022/04/30 05:52:34;;;;;;;11.65;8.07;;;8.40;99.90;;;;;;5001196;28;20124;-55
2022/04/30 05:55:03;;;;;;;16.13;7.25;;;8.50;99.90;;;;;;4982726;28;20046;-55
2022/04/30 05:57:30;;;;;;;9.07;7.70;;;8.50;99.90;;;;;;4998408;28;20406;-54
2022/04/30 05:59:56;;;;;;;11.13;7.55;;;8.60;99.90;;;;;;5000676;28;20042;-55
2022/04/30 06:02:22;;;;;;;13.93;8.45;;;8.60;99.90;;;;;;4979833;28;20049;-56
2022/04/30 06:04:49;;;;;;;13.27;8.88;;;8.60;99.90;;;;;;5001549;28;20046;-56
2022/04/30 06:07:15;;;;;;;13.98;7.85;;;8.70;99.90;;;;;;4999339;28;20125;-56
2022/04/30 06:09:41;;;;;;;12.00;8.57;;;8.70;99.90;;;;;;5018215;23;20044;-56
2022/04/30 06:12:07;;;;;;;10.60;7.75;;;8.70;99.90;;;;;;4980918;28;20050;-55
2022/04/30 06:14:33;;;;;;;12.52;8.25;;;8.80;99.90;;;;;;4996963;28;20082;-58
2022/04/30 06:17:00;;;;;;;12.00;8.00;;;8.90;99.90;;;;;;4988042;28;20386;-56
2022/04/30 06:19:26;;;;;;;14.80;9.27;;;9.00;99.90;;;;;;4975871;28;20065;-57
2022/04/30 06:21:53;;;;;;;16.23;9.50;;;8.90;99.90;;;;;;4977839;28;20482;-56
2022/04/30 06:24:19;;;;;;;12.85;8.55;;;9.10;99.90;;;;;;4981476;28;20088;-56
2022/04/30 06:26:44;;;;;;;14.75;8.52;;;9.10;99.90;;;;;;4983187;28;20066;-57
2022/04/30 06:29:11;;;;;;;15.50;9.60;;;9.20;99.90;;;;;;4980228;28;20549;-57
2022/04/30 06:31:38;;;;;;;16.65;9.25;;;9.30;99.90;;;;;;4977331;28;20125;-57
2022/04/30 06:34:04;;;;;;;13.70;7.82;;;9.40;99.90;;;;;;4962441;28;20045;-57
2022/04/30 06:36:29;;;;;;;11.93;9.27;;;9.60;99.90;;;;;;4975627;28;20045;-58
2022/04/30 06:38:55;;;;;;;13.40;8.82;;;9.80;99.90;;;;;;4973847;28;20097;-57
2022/04/30 06:41:22;;;;;;;11.48;8.50;;;9.90;99.90;;;;;;4976416;28;20445;-57
2022/04/30 06:43:51;;;;;;;15.00;9.18;;;10.00;99.90;;;;;;4981556;28;20396;-57
2022/04/30 06:46:18;;;;;;;13.50;8.60;;;10.10;99.90;;;;;;4978898;28;20061;-56
2022/04/30 06:48:46;;;;;;;9.75;7.50;;;10.20;99.90;;;;;;4979896;28;20462;-57
2022/04/30 06:51:12;;;;;;;17.23;9.60;;;10.30;99.90;;;;;;4975659;28;20112;-58
2022/04/30 06:59:12;;;;;;;15.60;8.88;;;10.40;99.90;;;;;;4976937;28;20046;-57
2022/04/30 07:01:51;;;;;;;16.70;11.43;;;10.40;99.90;;;;;;4979730;28;20489;-57
2022/04/30 07:04:17;;;;;;;14.80;11.07;;;10.40;99.90;;;;;;4981664;28;20165;-58
2022/04/30 07:06:46;;;;;;;14.60;9.00;;;10.40;99.90;;;;;;4978217;28;20046;-57
2022/04/30 07:09:13;;;;;;;11.93;8.23;;;10.30;99.90;;;;;;4981582;28;20065;-57
2022/04/30 07:11:39;;;;;;;12.80;9.15;;;10.30;99.90;;;;;;4975837;28;20551;-57
2022/04/30 07:14:05;;;;;;;13.02;8.68;;;10.30;99.90;;;;;;4968747;28;20042;-57
2022/04/30 07:16:31;;;;;;;14.73;9.73;;;10.20;99.90;;;;;;4976229;28;20170;-56
2022/04/30 07:18:57;;;;;;;15.35;9.48;;;10.20;99.90;;;;;;4981219;28;20108;-56
2022/04/30 07:21:23;;;;;;;13.38;8.85;;;10.20;99.90;;;;;;4995457;28;20034;-57
2022/04/30 07:23:50;;;;;;;10.40;7.53;;;10.20;99.90;;;;;;4972186;28;20101;-57
2022/04/30 07:26:16;;;;;;;15.25;8.65;;;10.10;99.90;;;;;;4981853;28;20101;-57
2022/04/30 07:28:42;;;;;;;13.07;7.78;;;10.10;99.90;;;;;;4963119;28;20046;-56
2022/04/30 07:31:08;;;;;;;13.65;8.48;;;10.10;99.90;;;;;;4974131;28;20038;-57
2022/04/30 07:33:34;;;;;;;17.42;9.50;;;10.10;99.90;;;;;;4957746;28;20053;-57
2022/04/30 07:36:00;;;;;;;15.30;8.52;;;10.00;99.90;;;;;;4975205;28;20053;-57
2022/04/30 07:38:26;;;;;;;15.32;9.95;;;10.00;99.90;;;;;;4979729;28;20030;-56
2022/04/30 07:40:52;;;;;;;15.70;9.50;;;9.90;99.90;;;;;;4974644;28;20100;-57
2022/04/30 07:43:18;;;;;;;16.17;9.70;;;9.90;99.90;;;;;;4973616;28;20046;-57
2022/04/30 07:45:44;;;;;;;13.93;9.25;;;9.80;99.90;;;;;;4974977;28;20050;-58
2022/04/30 07:48:10;;;;;;;12.13;8.57;;;9.80;99.90;;;;;;4970424;28;20034;-57
2022/04/30 07:50:36;;;;;;;16.48;9.13;;;9.70;99.90;;;;;;4972924;28;20070;-57
2022/04/30 07:53:07;;;;;;;11.95;9.38;;;9.70;99.90;;;;;;4979342;28;20061;-55
2022/04/30 07:55:33;;;;;;;20.05;10.80;;;9.70;99.90;;;;;;4963775;28;20046;-56
2022/04/30 07:57:59;;;;;;;14.75;9.20;;;9.70;99.90;;;;;;4975899;28;20740;-57
2022/04/30 08:00:26;;;;;;;15.13;11.18;;;9.70;99.90;;;;;;4978657;28;20047;-56
2022/04/30 08:02:55;;;;;;;14.77;11.13;;;9.60;99.90;;;;;;4973419;28;20180;-58
2022/04/30 08:05:22;;;;;;;19.63;12.48;;;9.50;99.90;;;;;;4957662;28;20405;-57
2022/04/30 08:07:47;;;;;;;22.95;12.27;;;9.50;99.90;;;;;;4977333;28;20101;-56
2022/04/30 08:10:13;;;;;;;18.80;10.95;;;9.40;99.90;;;;;;4963550;28;20440;-57
2022/04/30 08:12:39;;;;;;;18.90;11.18;;;9.30;99.90;;;;;;4956708;28;20042;-57
2022/04/30 08:15:05;;;;;;;16.75;11.65;;;9.30;99.90;;;;;;4977474;28;20633;-56
2022/04/30 08:17:31;;;;;;;18.83;12.88;;;9.30;99.90;;;;;;4975350;28;20042;-57
2022/04/30 08:19:57;;;;;;;13.00;9.70;;;9.40;99.90;;;;;;4953996;28;20034;-58
2022/04/30 08:22:22;;;;;;;15.30;11.10;;;9.30;99.90;;;;;;4979080;28;20133;-56
2022/04/30 08:24:49;;;;;;;14.77;9.82;;;9.30;99.90;;;;;;4958878;28;20046;-56
2022/04/30 08:27:15;;;;;;;14.40;10.35;;;9.30;99.90;;;;;;4978533;28;20042;-56
2022/04/30 08:29:41;;;;;;;15.23;10.20;;;9.40;99.90;;;;;;4944245;28;20104;-57
2022/04/30 08:32:07;;;;;;;15.38;11.00;;;9.40;99.90;;;;;;4965692;28;20401;-57
2022/04/30 08:34:33;;;;;;;15.20;12.15;;;9.40;99.90;;;;;;4967978;28;20141;-57
2022/04/30 08:36:59;;;;;;;16.98;11.13;;;9.40;99.90;;;;;;4980621;28;20042;-56
2022/04/30 08:39:25;;;;;;;16.35;11.05;;;9.40;99.90;;;;;;4964602;28;20516;-58
2022/04/30 08:41:51;;;;;;;17.85;11.07;;;9.40;99.90;;;;;;4976621;28;20596;-57
2022/04/30 08:44:18;;;;;;;16.65;11.00;;;9.40;99.90;;;;;;4981438;28;20140;-57
2022/04/30 08:46:44;;;;;;;18.33;11.55;;;9.40;99.90;;;;;;4972733;28;20046;-56
2022/04/30 08:49:11;;;;;;;19.40;11.65;;;9.40;99.90;;;;;;4961002;28;20101;-57
2022/04/30 08:51:38;;;;;;;21.85;12.05;;;9.40;99.90;;;;;;4978236;28;20038;-57
2022/04/30 08:54:04;;;;;;;15.18;11.32;;;9.50;99.90;;;;;;4979212;28;20042;-56
2022/04/30 08:56:30;;;;;;;13.98;9.60;;;9.50;99.90;;;;;;4978011;28;20042;-58
2022/04/30 08:59:02;;;;;;;18.63;11.52;;;9.50;99.90;;;;;;4961408;28;20056;-57
2022/04/30 09:01:28;;;;;;;17.45;11.77;;;9.50;99.90;;;;;;4967937;28;20172;-56
2022/04/30 09:03:56;;;;;;;15.20;10.77;;;9.60;99.90;;;;;;4977524;28;20050;-58
2022/04/30 09:06:22;;;;;;;16.23;10.15;;;9.60;99.90;;;;;;4979178;28;20050;-57
2022/04/30 09:08:52;;;;;;;15.10;10.68;;;9.70;99.90;;;;;;4977721;28;20092;-59
2022/04/30 09:11:26;;;;;;;14.82;11.13;;;9.70;99.90;;;;;;4977796;28;20050;-57
2022/04/30 09:13:52;;;;;;;17.35;11.25;;;9.80;99.90;;;;;;4981790;28;20045;-56
2022/04/30 09:16:23;;;;;;;15.05;11.20;;;9.80;99.90;;;;;;4963752;28;20031;-57
2022/04/30 09:18:52;;;;;;;16.20;11.27;;;9.90;99.90;;;;;;4980040;28;20129;-57
2022/04/30 09:21:18;;;;;;;15.52;11.77;;;10.00;99.90;;;;;;4966612;28;20079;-59
2022/04/30 09:23:44;;;;;;;24.75;11.15;;;10.00;99.90;;;;;;4977027;28;20513;-56
2022/04/30 09:26:11;;;;;;;17.38;10.38;;;10.00;99.90;;;;;;4983514;28;20042;-57
2022/04/30 09:28:43;;;;;;;16.13;10.18;;;10.00;99.90;;;;;;4982201;28;20045;-57
2022/04/30 09:31:11;;;;;;;11.85;7.05;;;10.10;99.90;;;;;;4982567;28;20049;-57
2022/04/30 09:33:57;;;;;;;13.63;6.65;;;10.20;99.90;;;;;;4971773;28;20131;-59
2022/04/30 09:39:13;;;;;;;11.57;6.95;;;10.20;99.90;;;;;;4978010;28;20064;-57
2022/04/30 09:41:39;;;;;;;11.95;6.80;;;10.20;99.90;;;;;;4971891;28;20086;-59
2022/04/30 09:44:07;;;;;;;10.50;6.93;;;10.30;99.90;;;;;;4964998;28;20086;-58
2022/04/30 09:46:38;;;;;;;11.23;6.75;;;10.40;99.90;;;;;;4965494;28;20054;-58
2022/04/30 09:54:40;;;;;;;7.63;5.20;;;10.60;99.90;;;;;;4970483;28;20058;-56
2022/04/30 09:57:09;;;;;;;9.43;5.82;;;10.70;99.90;;;;;;4977849;28;20053;-57
2022/04/30 09:59:38;;;;;;;10.50;7.63;;;10.80;99.90;;;;;;4983130;28;20145;-60
2022/04/30 10:02:05;;;;;;;11.05;8.10;;;10.90;99.90;;;;;;4978764;28;20054;-57
2022/04/30 10:04:36;;;;;;;13.38;8.93;;;11.00;99.90;;;;;;4968282;28;20602;-55
2022/04/30 10:07:04;;;;;;;11.73;7.97;;;11.10;99.90;;;;;;4959234;28;20042;-56
2022/04/30 10:09:44;;;;;;;8.93;6.10;;;11.20;99.90;;;;;;4950376;28;20046;-58
2022/04/30 10:12:24;;;;;;;9.98;6.38;;;11.30;99.90;;;;;;4979311;28;20047;-57
2022/04/30 10:15:09;;;;;;;11.70;7.15;;;11.30;99.90;;;;;;4978483;28;20414;-57
2022/04/30 10:17:39;;;;;;;10.82;5.82;;;11.30;99.90;;;;;;4980583;28;20086;-59
2022/04/30 10:20:12;;;;;;;12.27;7.45;;;11.30;99.90;;;;;;4978460;28;20038;-54
2022/04/30 10:22:55;;;;;;;10.15;6.40;;;11.40;99.90;;;;;;4966422;28;20046;-54
2022/04/30 10:25:42;;;;;;;8.55;5.85;;;11.40;99.90;;;;;;4977212;28;20038;-59
2022/04/30 10:28:22;;;;;;;7.53;4.97;;;11.40;99.90;;;;;;4980217;28;20047;-56
2022/04/30 10:31:04;;;;;;;8.38;4.85;;;11.40;99.90;;;;;;4989373;28;20129;-58
2022/04/30 10:33:31;;;;;;;8.82;5.38;;;11.30;99.90;;;;;;4988166;28;20545;-59
2022/04/30 10:36:08;;;;;;;8.68;5.00;;;11.30;99.90;;;;;;4967404;28;20938;-57
2022/04/30 10:38:35;;;;;;;7.10;3.65;;;11.30;99.90;;;;;;4979772;28;20030;-57
2022/04/30 10:41:02;;;;;;;5.20;4.20;;;11.30;99.90;;;;;;4967312;28;20386;-54
2022/04/30 10:43:37;;;;;;;7.55;3.65;;;11.30;99.90;;;;;;4975995;28;20050;-59
2022/04/30 10:46:05;;;;;;;7.47;3.83;;;11.40;99.90;;;;;;4973976;28;20050;-56
2022/04/30 10:48:35;;;;;;;6.95;4.32;;;11.40;99.80;;;;;;4979143;28;20042;-55
2022/04/30 10:51:09;;;;;;;6.75;4.55;;;11.50;99.80;;;;;;4966993;28;20762;-54
2022/04/30 10:53:39;;;;;;;6.50;3.75;;;11.50;99.10;;;;;;4973641;28;20046;-59
2022/04/30 10:56:06;;;;;;;7.20;4.05;;;11.50;98.90;;;;;;4972781;28;20626;-55
2022/04/30 10:58:34;;;;;;;5.18;4.20;;;11.50;99.00;;;;;;4972693;28;20061;-56
2022/04/30 11:01:18;;;;;;;6.22;3.85;;;11.60;98.80;;;;;;4978505;28;20516;-56
2022/04/30 11:03:45;;;;;;;7.22;4.15;;;11.60;97.90;;;;;;4980785;28;20076;-59
2022/04/30 11:06:12;;;;;;;6.93;4.28;;;11.60;97.80;;;;;;4965808;28;20398;-55
2022/04/30 11:08:38;;;;;;;7.07;3.90;;;11.60;98.30;;;;;;4955666;28;20043;-55
2022/04/30 11:11:04;;;;;;;4.53;3.40;;;11.70;98.10;;;;;;4962845;28;20046;-54
2022/04/30 11:13:30;;;;;;;6.82;3.58;;;11.70;96.80;;;;;;4979261;28;20044;-57
2022/04/30 11:15:59;;;;;;;6.72;3.25;;;11.60;97.00;;;;;;4972249;28;20129;-57
2022/04/30 11:18:25;;;;;;;6.63;3.58;;;11.70;97.40;;;;;;4976132;28;20542;-59
2022/04/30 11:21:01;;;;;;;6.18;3.22;;;11.70;96.30;;;;;;4958890;28;20046;-56
2022/04/30 11:23:27;;;;;;;4.18;3.00;;;11.70;96.30;;;;;;4959852;28;20145;-57
2022/04/30 11:25:52;;;;;;;6.32;3.00;;;11.70;95.90;;;;;;4977935;28;20462;-56
2022/04/30 11:28:18;;;;;;;7.03;3.10;;;11.70;95.80;;;;;;4977942;28;20058;-57
2022/04/30 11:30:45;;;;;;;12.00;4.25;;;11.70;95.60;;;;;;4979724;28;20072;-59
2022/04/30 11:33:12;;;;;;;10.40;4.20;;;11.70;95.80;;;;;;4972733;28;20180;-57
2022/04/30 11:35:38;;;;;;;6.75;3.38;;;11.80;96.30;;;;;;4981366;28;20046;-55
2022/04/30 11:38:09;;;;;;;8.63;3.90;;;11.90;96.30;;;;;;4978690;28;20046;-56
2022/04/30 11:40:35;;;;;;;13.80;4.38;;;11.90;95.70;;;;;;4960050;28;20038;-56
2022/04/30 11:43:05;;;;;;;7.45;3.75;;;12.00;95.50;;;;;;4975869;28;20054;-55
2022/04/30 11:45:32;;;;;;;14.63;4.20;;;12.00;95.30;;;;;;4968987;28;20115;-58
2022/04/30 11:47:58;;;;;;;12.48;4.97;;;12.10;95.20;;;;;;4976610;28;20053;-57
2022/04/30 11:50:26;;;;;;;14.07;7.35;;;12.10;95.30;;;;;;4973923;28;20129;-57
2022/04/30 11:52:52;;;;;;;13.40;9.02;;;12.10;95.50;;;;;;4951872;28;20047;-58
2022/04/30 11:55:20;;;;;;;9.88;7.00;;;11.70;98.00;;;;;;4969190;28;20068;-58
2022/04/30 11:57:46;;;;;;;10.02;7.13;;;11.60;99.10;;;;;;4947233;28;20042;-60
2022/04/30 12:00:16;;;;;;;10.63;6.93;;;11.50;99.90;;;;;;4971845;28;20038;-59
2022/04/30 12:02:45;;;;;;;12.50;7.05;;;11.30;99.90;;;;;;4955531;28;20038;-56
2022/04/30 12:05:10;;;;;;;10.10;6.88;;;11.40;99.90;;;;;;4968403;28;20050;-53
2022/04/30 12:07:37;;;;;;;8.63;6.78;;;11.30;99.90;;;;;;4962037;28;20034;-57
2022/04/30 12:10:18;;;;;;;11.07;7.78;;;11.40;99.90;;;;;;4960804;28;20226;-57
2022/04/30 12:12:44;;;;;;;14.55;7.60;;;11.30;99.80;;;;;;4975658;28;20401;-57
2022/04/30 12:15:19;;;;;;;15.15;7.35;;;11.30;99.90;;;;;;4953391;28;20137;-56
2022/04/30 12:17:45;;;;;;;11.20;7.22;;;11.30;99.90;;;;;;4971728;28;20049;-58
2022/04/30 12:26:05;;;;;;;13.07;6.35;;;11.30;99.90;;;;;;4970637;28;20481;-59
2022/04/30 12:28:42;;;;;;;10.15;5.97;;;11.30;99.90;;;;;;4977178;28;20038;-58
2022/04/30 12:31:09;;;;;;;11.48;7.18;;;11.30;99.90;;;;;;5004655;28;20054;-57
2022/04/30 12:33:45;;;;;;;9.50;7.57;;;11.30;99.90;;;;;;4981429;28;20117;-58
2022/04/30 12:36:13;;;;;;;9.82;7.40;;;11.30;99.90;;;;;;4983027;28;20054;-58
2022/04/30 12:38:39;;;;;;;9.93;7.10;;;11.30;99.90;;;;;;4982377;28;20041;-58
2022/04/30 12:41:08;;;;;;;12.18;7.63;;;11.30;99.90;;;;;;4990330;28;20281;-56
2022/04/30 12:43:36;;;;;;;12.93;8.05;;;11.30;99.90;;;;;;4975618;28;20645;-58
2022/04/30 12:46:07;;;;;;;13.30;7.80;;;11.20;99.90;;;;;;4962960;28;20046;-58
2022/04/30 12:48:34;;;;;;;12.60;7.15;;;11.10;99.90;;;;;;4981132;28;20050;-61
2022/04/30 12:50:59;;;;;;;10.85;7.65;;;11.20;99.90;;;;;;4956618;28;20352;-57
2022/04/30 12:53:25;;;;;;;8.73;6.88;;;11.20;99.90;;;;;;4983905;28;20062;-59
2022/04/30 12:55:54;;;;;;;9.70;7.22;;;11.20;99.90;;;;;;4983281;28;20046;-58
2022/04/30 12:58:20;;;;;;;13.93;8.43;;;11.20;99.90;;;;;;4985414;28;20064;-58
2022/04/30 13:00:46;;;;;;;11.70;7.95;;;11.20;99.90;;;;;;4983538;28;20199;-57
2022/04/30 13:03:12;;;;;;;19.25;9.02;;;11.20;99.90;;;;;;4959392;28;20049;-58
2022/04/30 13:05:37;;;;;;;16.33;8.90;;;11.20;99.90;;;;;;4962662;28;20058;-55
2022/04/30 13:08:03;;;;;;;11.98;8.50;;;11.20;99.90;;;;;;4984004;28;20456;-57
2022/04/30 13:13:32;;;;;;;17.05;8.43;;;11.20;99.90;;;;;;4980085;28;20121;-60
2022/04/30 13:16:09;;;;;;;12.57;7.63;;;11.30;99.90;;;;;;4985072;28;20494;-58
2022/04/30 13:18:35;;;;;;;13.57;8.15;;;11.30;99.90;;;;;;4996478;28;20038;-56
2022/04/30 13:21:03;;;;;;;10.30;7.55;;;11.20;99.90;;;;;;4985879;28;20046;-56
2022/04/30 13:23:29;;;;;;;11.60;7.93;;;11.30;99.90;;;;;;4985857;28;20555;-59
2022/04/30 13:25:55;;;;;;;12.32;7.95;;;11.40;99.90;;;;;;4969851;28;20078;-56
2022/04/30 13:28:21;;;;;;;11.20;7.55;;;11.40;99.90;;;;;;4988248;28;20398;-56
2022/04/30 13:30:47;;;;;;;12.23;8.60;;;11.40;99.90;;;;;;4954348;28;20027;-55
2022/04/30 13:33:12;;;;;;;13.48;9.15;;;11.50;99.90;;;;;;4988443;28;20469;-58
2022/04/30 13:35:38;;;;;;;12.10;8.32;;;11.50;99.90;;;;;;4983951;28;20058;-56